sensor_id;sensor_type;location;lat;lon;timestamp;P1;durP1;ratioP1;P2;durP2;ratioP2
78854;SDS011;68206;59.956;30.234;2023-04-01T00:00:41;14.07;;;5.95;;
78854;SDS011;68206;59.956;30.234;2023-04-01T00:03:12;9.57;;;5.60;;
78854;SDS011;68206;59.956;30.234;2023-04-01T00:05:45;11.70;;;6.22;;
78854;SDS011;68206;59.956;30.234;2023-04-01T00:08:18;11.02;;;6.60;;
78854;SDS011;68206;59.956;30.234;2023-04-01T00:10:50;10.23;;;5.10;;
78854;SDS011;68206;59.956;30.234;2023-04-01T00:13:23;12.02;;;5.72;;
78854;SDS011;68206;59.956;30.234;2023-04-01T00:15:57;15.25;;;7.97;;
78854;SDS011;68206;59.956;30.234;2023-04-01T00:18:30;10.77;;;6.18;;
78854;SDS011;68206;59.956;30.234;2023-04-01T00:21:01;13.05;;;6.20;;
78854;SDS011;68206;59.956;30.234;2023-04-01T00:23:32;12.13;;;6.40;;
78854;SDS011;68206;59.956;30.234;2023-04-01T00:26:03;10.10;;;5.22;;
78854;SDS011;68206;59.956;30.234;2023-04-01T00:28:38;9.93;;;5.07;;
78854;SDS011;68206;59.956;30.234;2023-04-01T00:31:11;9.48;;;5.28;;
78854;SDS011;68206;59.956;30.234;2023-04-01T00:33:43;11.82;;;6.15;;
78854;SDS011;68206;59.956;30.234;2023-04-01T00:36:15;11.80;;;6.20;;
78854;SDS011;68206;59.956;30.234;2023-04-01T00:38:47;11.07;;;6.07;;
78854;SDS011;68206;59.956;30.234;2023-04-01T00:41:20;12.40;;;6.10;;
78854;SDS011;68206;59.956;30.234;2023-04-01T00:43:51;9.48;;;4.70;;
78854;SDS011;68206;59.956;30.234;2023-04-01T00:46:24;8.90;;;4.90;;
78854;SDS011;68206;59.956;30.234;2023-04-01T00:48:55;8.85;;;4.68;;
78854;SDS011;68206;59.956;30.234;2023-04-01T00:51:27;9.88;;;5.07;;
78854;SDS011;68206;59.956;30.234;2023-04-01T00:54:00;11.07;;;5.93;;
78854;SDS011;68206;59.956;30.234;2023-04-01T00:56:33;9.23;;;5.50;;
78854;SDS011;68206;59.956;30.234;2023-04-01T00:59:10;10.00;;;5.80;;
78854;SDS011;68206;59.956;30.234;2023-04-01T01:01:46;7.32;;;4.78;;
78854;SDS011;68206;59.956;30.234;2023-04-01T01:04:23;8.63;;;4.85;;
78854;SDS011;68206;59.956;30.234;2023-04-01T01:06:58;13.32;;;6.78;;
78854;SDS011;68206;59.956;30.234;2023-04-01T01:09:41;9.82;;;5.40;;
78854;SDS011;68206;59.956;30.234;2023-04-01T01:12:20;10.40;;;4.72;;
78854;SDS011;68206;59.956;30.234;2023-04-01T01:14:58;9.07;;;4.85;;
78854;SDS011;68206;59.956;30.234;2023-04-01T01:17:39;12.77;;;5.70;;
78854;SDS011;68206;59.956;30.234;2023-04-01T01:20:34;7.75;;;4.65;;
78854;SDS011;68206;59.956;30.234;2023-04-01T01:26:37;8.88;;;5.30;;
78854;SDS011;68206;59.956;30.234;2023-04-01T01:35:49;13.10;;;5.72;;
78854;SDS011;68206;59.956;30.234;2023-04-01T01:38:23;8.88;;;5.30;;
78854;SDS011;68206;59.956;30.234;2023-04-01T01:41:02;8.43;;;4.78;;
78854;SDS011;68206;59.956;30.234;2023-04-01T01:43:37;7.30;;;4.20;;
78854;SDS011;68206;59.956;30.234;2023-04-01T01:46:14;8.70;;;4.72;;
78854;SDS011;68206;59.956;30.234;2023-04-01T01:48:49;9.77;;;5.15;;
78854;SDS011;68206;59.956;30.234;2023-04-01T01:51:22;11.10;;;5.68;;
78854;SDS011;68206;59.956;30.234;2023-04-01T01:53:59;9.48;;;5.60;;
78854;SDS011;68206;59.956;30.234;2023-04-01T01:56:31;10.00;;;5.03;;
78854;SDS011;68206;59.956;30.234;2023-04-01T01:59:06;9.32;;;4.97;;
78854;SDS011;68206;59.956;30.234;2023-04-01T02:01:42;7.55;;;3.55;;
78854;SDS011;68206;59.956;30.234;2023-04-01T02:04:17;10.38;;;5.32;;
78854;SDS011;68206;59.956;30.234;2023-04-01T02:06:53;9.73;;;5.57;;
78854;SDS011;68206;59.956;30.234;2023-04-01T02:09:30;9.45;;;5.18;;
78854;SDS011;68206;59.956;30.234;2023-04-01T02:12:05;8.55;;;5.10;;
78854;SDS011;68206;59.956;30.234;2023-04-01T02:14:42;8.82;;;6.38;;
78854;SDS011;68206;59.956;30.234;2023-04-01T02:17:18;7.25;;;4.78;;
78854;SDS011;68206;59.956;30.234;2023-04-01T02:19:53;11.15;;;5.50;;
78854;SDS011;68206;59.956;30.234;2023-04-01T02:22:29;9.80;;;6.00;;
78854;SDS011;68206;59.956;30.234;2023-04-01T02:25:04;11.80;;;6.53;;
78854;SDS011;68206;59.956;30.234;2023-04-01T02:27:38;7.93;;;4.65;;
78854;SDS011;68206;59.956;30.234;2023-04-01T02:30:12;12.65;;;6.85;;
78854;SDS011;68206;59.956;30.234;2023-04-01T02:35:17;9.88;;;6.05;;
78854;SDS011;68206;59.956;30.234;2023-04-01T02:37:50;10.25;;;4.47;;
78854;SDS011;68206;59.956;30.234;2023-04-01T02:40:23;8.02;;;5.25;;
78854;SDS011;68206;59.956;30.234;2023-04-01T02:42:51;7.70;;;4.95;;
78854;SDS011;68206;59.956;30.234;2023-04-01T02:45:20;10.05;;;5.40;;
78854;SDS011;68206;59.956;30.234;2023-04-01T02:47:48;11.15;;;5.72;;
78854;SDS011;68206;59.956;30.234;2023-04-01T02:50:16;8.20;;;4.63;;
78854;SDS011;68206;59.956;30.234;2023-04-01T02:52:44;8.63;;;5.30;;
78854;SDS011;68206;59.956;30.234;2023-04-01T02:55:14;8.45;;;5.00;;
78854;SDS011;68206;59.956;30.234;2023-04-01T02:57:42;10.13;;;5.13;;
78854;SDS011;68206;59.956;30.234;2023-04-01T03:00:10;9.68;;;5.57;;
78854;SDS011;68206;59.956;30.234;2023-04-01T03:02:39;10.48;;;5.50;;
78854;SDS011;68206;59.956;30.234;2023-04-01T03:05:08;10.02;;;6.13;;
78854;SDS011;68206;59.956;30.234;2023-04-01T03:07:36;8.13;;;5.15;;
78854;SDS011;68206;59.956;30.234;2023-04-01T03:10:05;8.05;;;3.97;;
78854;SDS011;68206;59.956;30.234;2023-04-01T03:12:35;5.80;;;3.55;;
78854;SDS011;68206;59.956;30.234;2023-04-01T03:15:04;8.63;;;4.30;;
78854;SDS011;68206;59.956;30.234;2023-04-01T03:17:38;10.95;;;5.22;;
78854;SDS011;68206;59.956;30.234;2023-04-01T03:20:07;7.93;;;4.05;;
78854;SDS011;68206;59.956;30.234;2023-04-01T03:22:37;11.88;;;5.20;;
78854;SDS011;68206;59.956;30.234;2023-04-01T03:25:08;11.45;;;5.85;;
78854;SDS011;68206;59.956;30.234;2023-04-01T03:27:40;11.13;;;6.60;;
78854;SDS011;68206;59.956;30.234;2023-04-01T03:30:08;11.15;;;4.75;;
78854;SDS011;68206;59.956;30.234;2023-04-01T03:32:46;12.85;;;5.90;;
78854;SDS011;68206;59.956;30.234;2023-04-01T03:35:14;8.50;;;5.10;;
78854;SDS011;68206;59.956;30.234;2023-04-01T03:37:42;11.82;;;5.82;;
78854;SDS011;68206;59.956;30.234;2023-04-01T03:40:11;18.77;;;6.10;;
78854;SDS011;68206;59.956;30.234;2023-04-01T03:42:40;10.50;;;5.22;;
78854;SDS011;68206;59.956;30.234;2023-04-01T03:45:09;9.73;;;5.60;;
78854;SDS011;68206;59.956;30.234;2023-04-01T03:47:39;9.32;;;4.43;;
78854;SDS011;68206;59.956;30.234;2023-04-01T03:50:08;10.20;;;5.20;;
78854;SDS011;68206;59.956;30.234;2023-04-01T03:52:37;11.57;;;4.80;;
78854;SDS011;68206;59.956;30.234;2023-04-01T03:55:05;12.00;;;5.95;;
78854;SDS011;68206;59.956;30.234;2023-04-01T03:57:35;8.05;;;4.10;;
78854;SDS011;68206;59.956;30.234;2023-04-01T04:00:15;13.13;;;7.88;;
78854;SDS011;68206;59.956;30.234;2023-04-01T04:02:46;9.95;;;5.85;;
78854;SDS011;68206;59.956;30.234;2023-04-01T04:05:19;7.72;;;4.63;;
78854;SDS011;68206;59.956;30.234;2023-04-01T04:07:48;7.30;;;4.20;;
78854;SDS011;68206;59.956;30.234;2023-04-01T04:10:16;7.72;;;4.22;;
78854;SDS011;68206;59.956;30.234;2023-04-01T04:12:44;9.52;;;4.78;;
78854;SDS011;68206;59.956;30.234;2023-04-01T04:15:12;7.03;;;3.72;;
78854;SDS011;68206;59.956;30.234;2023-04-01T04:17:43;7.15;;;3.75;;
78854;SDS011;68206;59.956;30.234;2023-04-01T04:20:13;10.02;;;4.75;;
78854;SDS011;68206;59.956;30.234;2023-04-01T04:22:42;8.82;;;3.83;;
78854;SDS011;68206;59.956;30.234;2023-04-01T04:25:10;6.25;;;3.95;;
78854;SDS011;68206;59.956;30.234;2023-04-01T04:27:38;7.45;;;4.75;;
78854;SDS011;68206;59.956;30.234;2023-04-01T04:30:09;5.90;;;3.88;;
78854;SDS011;68206;59.956;30.234;2023-04-01T04:32:38;8.65;;;3.53;;
78854;SDS011;68206;59.956;30.234;2023-04-01T04:35:11;7.72;;;4.53;;
78854;SDS011;68206;59.956;30.234;2023-04-01T04:37:40;11.45;;;5.75;;
78854;SDS011;68206;59.956;30.234;2023-04-01T04:40:08;9.00;;;4.47;;
78854;SDS011;68206;59.956;30.234;2023-04-01T04:42:37;10.40;;;3.97;;
78854;SDS011;68206;59.956;30.234;2023-04-01T04:45:09;7.82;;;4.38;;
78854;SDS011;68206;59.956;30.234;2023-04-01T04:47:45;7.25;;;4.47;;
78854;SDS011;68206;59.956;30.234;2023-04-01T04:50:15;7.22;;;4.35;;
78854;SDS011;68206;59.956;30.234;2023-04-01T04:52:43;7.25;;;3.92;;
78854;SDS011;68206;59.956;30.234;2023-04-01T04:55:12;7.47;;;4.22;;
78854;SDS011;68206;59.956;30.234;2023-04-01T04:57:44;9.40;;;4.68;;
78854;SDS011;68206;59.956;30.234;2023-04-01T05:00:13;8.02;;;4.50;;
78854;SDS011;68206;59.956;30.234;2023-04-01T05:02:48;10.15;;;4.97;;
78854;SDS011;68206;59.956;30.234;2023-04-01T05:05:18;7.53;;;4.60;;
78854;SDS011;68206;59.956;30.234;2023-04-01T05:07:46;10.35;;;5.13;;
78854;SDS011;68206;59.956;30.234;2023-04-01T05:10:14;8.93;;;5.32;;
78854;SDS011;68206;59.956;30.234;2023-04-01T05:12:43;9.25;;;4.40;;
78854;SDS011;68206;59.956;30.234;2023-04-01T05:15:16;7.70;;;4.57;;
78854;SDS011;68206;59.956;30.234;2023-04-01T05:17:44;8.77;;;4.55;;
78854;SDS011;68206;59.956;30.234;2023-04-01T05:20:14;7.55;;;4.20;;
78854;SDS011;68206;59.956;30.234;2023-04-01T05:22:44;7.57;;;3.53;;
78854;SDS011;68206;59.956;30.234;2023-04-01T05:25:12;9.93;;;3.90;;
78854;SDS011;68206;59.956;30.234;2023-04-01T05:27:40;7.25;;;4.10;;
78854;SDS011;68206;59.956;30.234;2023-04-01T05:30:09;6.63;;;4.20;;
78854;SDS011;68206;59.956;30.234;2023-04-01T05:32:59;7.85;;;4.18;;
78854;SDS011;68206;59.956;30.234;2023-04-01T05:35:27;8.75;;;4.50;;
78854;SDS011;68206;59.956;30.234;2023-04-01T05:37:57;7.30;;;3.10;;
78854;SDS011;68206;59.956;30.234;2023-04-01T05:40:25;6.90;;;3.60;;
78854;SDS011;68206;59.956;30.234;2023-04-01T05:42:53;7.43;;;4.00;;
78854;SDS011;68206;59.956;30.234;2023-04-01T05:45:22;10.98;;;4.60;;
78854;SDS011;68206;59.956;30.234;2023-04-01T05:48:08;5.57;;;3.28;;
78854;SDS011;68206;59.956;30.234;2023-04-01T05:50:39;5.40;;;3.22;;
78854;SDS011;68206;59.956;30.234;2023-04-01T05:53:11;6.20;;;4.13;;
78854;SDS011;68206;59.956;30.234;2023-04-01T05:55:41;8.38;;;4.70;;
78854;SDS011;68206;59.956;30.234;2023-04-01T05:58:10;7.18;;;4.18;;
78854;SDS011;68206;59.956;30.234;2023-04-01T06:00:40;7.65;;;3.72;;
78854;SDS011;68206;59.956;30.234;2023-04-01T06:03:09;7.07;;;4.15;;
78854;SDS011;68206;59.956;30.234;2023-04-01T06:05:39;7.00;;;3.95;;
78854;SDS011;68206;59.956;30.234;2023-04-01T06:08:13;9.00;;;4.97;;
78854;SDS011;68206;59.956;30.234;2023-04-01T06:10:52;10.55;;;4.50;;
78854;SDS011;68206;59.956;30.234;2023-04-01T06:16:22;9.02;;;4.60;;
78854;SDS011;68206;59.956;30.234;2023-04-01T06:19:03;9.43;;;4.20;;
78854;SDS011;68206;59.956;30.234;2023-04-01T06:21:47;8.13;;;4.55;;
78854;SDS011;68206;59.956;30.234;2023-04-01T06:24:47;8.23;;;4.80;;
78854;SDS011;68206;59.956;30.234;2023-04-01T06:27:35;7.10;;;4.90;;
78854;SDS011;68206;59.956;30.234;2023-04-01T06:30:33;8.32;;;3.85;;
78854;SDS011;68206;59.956;30.234;2023-04-01T06:33:22;6.93;;;3.65;;
78854;SDS011;68206;59.956;30.234;2023-04-01T06:36:08;8.20;;;4.45;;
78854;SDS011;68206;59.956;30.234;2023-04-01T06:38:50;6.93;;;3.88;;
78854;SDS011;68206;59.956;30.234;2023-04-01T06:41:37;9.80;;;4.80;;
78854;SDS011;68206;59.956;30.234;2023-04-01T06:44:31;9.75;;;5.13;;
78854;SDS011;68206;59.956;30.234;2023-04-01T06:47:28;8.95;;;4.80;;
78854;SDS011;68206;59.956;30.234;2023-04-01T06:50:30;10.55;;;5.22;;
78854;SDS011;68206;59.956;30.234;2023-04-01T06:53:24;8.25;;;4.70;;
78854;SDS011;68206;59.956;30.234;2023-04-01T06:56:29;12.48;;;5.07;;
78854;SDS011;68206;59.956;30.234;2023-04-01T06:59:05;8.65;;;4.72;;
78854;SDS011;68206;59.956;30.234;2023-04-01T07:01:39;10.57;;;5.53;;
78854;SDS011;68206;59.956;30.234;2023-04-01T07:04:11;10.10;;;5.10;;
78854;SDS011;68206;59.956;30.234;2023-04-01T07:06:43;11.15;;;5.18;;
78854;SDS011;68206;59.956;30.234;2023-04-01T07:09:18;8.50;;;5.30;;
78854;SDS011;68206;59.956;30.234;2023-04-01T07:12:10;9.57;;;5.00;;
78854;SDS011;68206;59.956;30.234;2023-04-01T07:15:20;7.65;;;4.75;;
78854;SDS011;68206;59.956;30.234;2023-04-01T07:17:53;7.88;;;4.88;;
78854;SDS011;68206;59.956;30.234;2023-04-01T07:20:25;9.85;;;5.47;;
78854;SDS011;68206;59.956;30.234;2023-04-01T07:22:57;9.73;;;5.32;;
78854;SDS011;68206;59.956;30.234;2023-04-01T07:25:34;8.90;;;4.80;;
78854;SDS011;68206;59.956;30.234;2023-04-01T07:28:34;8.88;;;5.07;;
78854;SDS011;68206;59.956;30.234;2023-04-01T07:31:20;8.15;;;5.13;;
78854;SDS011;68206;59.956;30.234;2023-04-01T07:34:00;6.60;;;4.63;;
78854;SDS011;68206;59.956;30.234;2023-04-01T07:36:36;6.57;;;3.70;;
78854;SDS011;68206;59.956;30.234;2023-04-01T07:39:12;10.98;;;5.75;;
78854;SDS011;68206;59.956;30.234;2023-04-01T07:42:05;9.65;;;5.00;;
78854;SDS011;68206;59.956;30.234;2023-04-01T07:44:42;11.90;;;4.78;;
78854;SDS011;68206;59.956;30.234;2023-04-01T07:50:16;10.38;;;4.45;;
78854;SDS011;68206;59.956;30.234;2023-04-01T07:52:50;9.73;;;4.85;;
78854;SDS011;68206;59.956;30.234;2023-04-01T07:55:29;11.77;;;5.43;;
78854;SDS011;68206;59.956;30.234;2023-04-01T08:00:42;8.63;;;4.80;;
78854;SDS011;68206;59.956;30.234;2023-04-01T08:03:35;9.20;;;4.95;;
78854;SDS011;68206;59.956;30.234;2023-04-01T08:06:14;5.75;;;3.83;;
78854;SDS011;68206;59.956;30.234;2023-04-01T08:08:55;8.75;;;4.65;;
78854;SDS011;68206;59.956;30.234;2023-04-01T08:12:08;12.40;;;5.55;;
78854;SDS011;68206;59.956;30.234;2023-04-01T08:15:02;9.45;;;5.53;;
78854;SDS011;68206;59.956;30.234;2023-04-01T08:18:06;10.63;;;5.65;;
78854;SDS011;68206;59.956;30.234;2023-04-01T08:20:44;12.32;;;6.15;;
78854;SDS011;68206;59.956;30.234;2023-04-01T08:23:16;8.82;;;4.63;;
78854;SDS011;68206;59.956;30.234;2023-04-01T08:25:50;7.50;;;4.28;;
78854;SDS011;68206;59.956;30.234;2023-04-01T08:28:27;8.68;;;5.07;;
78854;SDS011;68206;59.956;30.234;2023-04-01T08:31:04;9.00;;;4.82;;
78854;SDS011;68206;59.956;30.234;2023-04-01T08:33:43;7.22;;;4.07;;
78854;SDS011;68206;59.956;30.234;2023-04-01T08:36:20;12.32;;;5.20;;
78854;SDS011;68206;59.956;30.234;2023-04-01T08:39:10;8.68;;;5.18;;
78854;SDS011;68206;59.956;30.234;2023-04-01T08:41:52;6.05;;;3.90;;
78854;SDS011;68206;59.956;30.234;2023-04-01T08:45:16;8.55;;;4.80;;
78854;SDS011;68206;59.956;30.234;2023-04-01T08:51:21;7.55;;;3.30;;
78854;SDS011;68206;59.956;30.234;2023-04-01T08:54:25;10.57;;;5.15;;
78854;SDS011;68206;59.956;30.234;2023-04-01T08:57:11;7.60;;;3.85;;
78854;SDS011;68206;59.956;30.234;2023-04-01T09:00:20;7.68;;;4.60;;
78854;SDS011;68206;59.956;30.234;2023-04-01T09:03:25;8.45;;;4.43;;
78854;SDS011;68206;59.956;30.234;2023-04-01T09:06:26;7.95;;;4.82;;
78854;SDS011;68206;59.956;30.234;2023-04-01T09:12:19;6.13;;;3.80;;
78854;SDS011;68206;59.956;30.234;2023-04-01T09:15:17;7.00;;;3.50;;
78854;SDS011;68206;59.956;30.234;2023-04-01T09:18:13;7.00;;;3.33;;
78854;SDS011;68206;59.956;30.234;2023-04-01T09:21:14;5.93;;;3.78;;
78854;SDS011;68206;59.956;30.234;2023-04-01T09:24:25;4.70;;;2.92;;
78854;SDS011;68206;59.956;30.234;2023-04-01T09:27:26;6.18;;;3.53;;
78854;SDS011;68206;59.956;30.234;2023-04-01T09:36:33;8.35;;;4.35;;
78854;SDS011;68206;59.956;30.234;2023-04-01T09:39:22;11.00;;;3.88;;
78854;SDS011;68206;59.956;30.234;2023-04-01T09:42:22;8.25;;;4.45;;
78854;SDS011;68206;59.956;30.234;2023-04-01T09:45:29;6.97;;;4.45;;
78854;SDS011;68206;59.956;30.234;2023-04-01T09:48:15;7.35;;;4.53;;
78854;SDS011;68206;59.956;30.234;2023-04-01T09:51:06;6.82;;;4.80;;
78854;SDS011;68206;59.956;30.234;2023-04-01T09:53:55;8.85;;;4.78;;
78854;SDS011;68206;59.956;30.234;2023-04-01T10:19:59;7.57;;;4.40;;
78854;SDS011;68206;59.956;30.234;2023-04-01T10:29:14;6.80;;;4.47;;
78854;SDS011;68206;59.956;30.234;2023-04-01T10:35:41;7.15;;;4.20;;
78854;SDS011;68206;59.956;30.234;2023-04-01T10:58:44;9.55;;;4.10;;
78854;SDS011;68206;59.956;30.234;2023-04-01T11:02:08;6.65;;;3.88;;
78854;SDS011;68206;59.956;30.234;2023-04-01T11:08:31;8.98;;;4.72;;
78854;SDS011;68206;59.956;30.234;2023-04-01T11:17:54;7.45;;;4.07;;
78854;SDS011;68206;59.956;30.234;2023-04-01T11:30:51;6.70;;;3.35;;
78854;SDS011;68206;59.956;30.234;2023-04-01T11:33:34;4.78;;;3.30;;
78854;SDS011;68206;59.956;30.234;2023-04-01T11:36:17;7.07;;;3.75;;
78854;SDS011;68206;59.956;30.234;2023-04-01T11:39:00;6.47;;;3.65;;
78854;SDS011;68206;59.956;30.234;2023-04-01T11:42:06;7.03;;;4.28;;
78854;SDS011;68206;59.956;30.234;2023-04-01T11:45:24;5.95;;;3.90;;
78854;SDS011;68206;59.956;30.234;2023-04-01T11:48:15;7.43;;;4.22;;
78854;SDS011;68206;59.956;30.234;2023-04-01T11:51:04;7.53;;;4.00;;
78854;SDS011;68206;59.956;30.234;2023-04-01T11:53:47;6.65;;;4.07;;
78854;SDS011;68206;59.956;30.234;2023-04-01T11:56:32;7.78;;;4.63;;
78854;SDS011;68206;59.956;30.234;2023-04-01T11:59:29;6.82;;;4.50;;
78854;SDS011;68206;59.956;30.234;2023-04-01T12:02:21;8.07;;;4.70;;
78854;SDS011;68206;59.956;30.234;2023-04-01T12:05:08;9.45;;;4.13;;
78854;SDS011;68206;59.956;30.234;2023-04-01T12:08:20;8.98;;;4.20;;
78854;SDS011;68206;59.956;30.234;2023-04-01T12:11:04;7.07;;;4.30;;
78854;SDS011;68206;59.956;30.234;2023-04-01T12:13:48;7.30;;;4.18;;
78854;SDS011;68206;59.956;30.234;2023-04-01T12:16:38;6.32;;;3.60;;
78854;SDS011;68206;59.956;30.234;2023-04-01T12:19:18;4.90;;;3.45;;
78854;SDS011;68206;59.956;30.234;2023-04-01T12:22:00;6.97;;;3.60;;
78854;SDS011;68206;59.956;30.234;2023-04-01T12:24:45;4.95;;;3.20;;
78854;SDS011;68206;59.956;30.234;2023-04-01T12:35:52;5.63;;;3.42;;
78854;SDS011;68206;59.956;30.234;2023-04-01T12:38:30;7.65;;;3.20;;
78854;SDS011;68206;59.956;30.234;2023-04-01T12:41:16;8.52;;;4.97;;
78854;SDS011;68206;59.956;30.234;2023-04-01T12:43:59;6.50;;;3.42;;
78854;SDS011;68206;59.956;30.234;2023-04-01T12:50:19;5.82;;;3.88;;
78854;SDS011;68206;59.956;30.234;2023-04-01T12:53:10;9.82;;;4.10;;
78854;SDS011;68206;59.956;30.234;2023-04-01T12:55:48;4.22;;;2.80;;
78854;SDS011;68206;59.956;30.234;2023-04-01T12:58:38;5.03;;;3.53;;
78854;SDS011;68206;59.956;30.234;2023-04-01T13:01:39;6.10;;;3.88;;
78854;SDS011;68206;59.956;30.234;2023-04-01T13:07:51;5.22;;;3.38;;
78854;SDS011;68206;59.956;30.234;2023-04-01T13:10:27;6.07;;;3.15;;
78854;SDS011;68206;59.956;30.234;2023-04-01T13:13:17;5.65;;;2.92;;
78854;SDS011;68206;59.956;30.234;2023-04-01T13:15:58;5.05;;;2.90;;
78854;SDS011;68206;59.956;30.234;2023-04-01T13:18:37;5.47;;;2.75;;
78854;SDS011;68206;59.956;30.234;2023-04-01T13:21:19;2.67;;;1.92;;
78854;SDS011;68206;59.956;30.234;2023-04-01T13:23:55;3.58;;;2.20;;
78854;SDS011;68206;59.956;30.234;2023-04-01T13:26:33;4.38;;;2.78;;
78854;SDS011;68206;59.956;30.234;2023-04-01T13:29:10;5.47;;;3.08;;
78854;SDS011;68206;59.956;30.234;2023-04-01T13:31:49;3.65;;;2.15;;
78854;SDS011;68206;59.956;30.234;2023-04-01T13:34:32;4.72;;;2.60;;
78854;SDS011;68206;59.956;30.234;2023-04-01T13:37:18;6.38;;;2.50;;
78854;SDS011;68206;59.956;30.234;2023-04-01T13:43:02;3.25;;;2.28;;
78854;SDS011;68206;59.956;30.234;2023-04-01T13:45:38;5.13;;;2.55;;
78854;SDS011;68206;59.956;30.234;2023-04-01T13:48:28;4.13;;;2.30;;
78854;SDS011;68206;59.956;30.234;2023-04-01T13:54:18;3.72;;;2.03;;
78854;SDS011;68206;59.956;30.234;2023-04-01T13:57:06;3.78;;;2.10;;
78854;SDS011;68206;59.956;30.234;2023-04-01T13:59:57;6.45;;;2.30;;
78854;SDS011;68206;59.956;30.234;2023-04-01T14:02:46;6.72;;;2.10;;
78854;SDS011;68206;59.956;30.234;2023-04-01T14:05:33;2.75;;;1.92;;
78854;SDS011;68206;59.956;30.234;2023-04-01T14:08:17;3.33;;;2.03;;
78854;SDS011;68206;59.956;30.234;2023-04-01T14:10:58;6.03;;;2.05;;
78854;SDS011;68206;59.956;30.234;2023-04-01T14:13:39;3.80;;;2.40;;
78854;SDS011;68206;59.956;30.234;2023-04-01T14:19:20;3.75;;;2.10;;
78854;SDS011;68206;59.956;30.234;2023-04-01T14:22:01;4.03;;;1.75;;
78854;SDS011;68206;59.956;30.234;2023-04-01T14:24:42;4.30;;;2.30;;
78854;SDS011;68206;59.956;30.234;2023-04-01T14:27:36;4.35;;;2.13;;
78854;SDS011;68206;59.956;30.234;2023-04-01T14:30:27;3.40;;;2.13;;
78854;SDS011;68206;59.956;30.234;2023-04-01T14:33:05;6.57;;;2.08;;
78854;SDS011;68206;59.956;30.234;2023-04-01T14:35:49;3.95;;;1.92;;
78854;SDS011;68206;59.956;30.234;2023-04-01T14:38:41;3.55;;;1.90;;
78854;SDS011;68206;59.956;30.234;2023-04-01T14:41:17;4.38;;;2.13;;
78854;SDS011;68206;59.956;30.234;2023-04-01T14:44:05;3.30;;;1.80;;
78854;SDS011;68206;59.956;30.234;2023-04-01T14:46:51;5.35;;;2.00;;
78854;SDS011;68206;59.956;30.234;2023-04-01T14:49:39;3.13;;;1.63;;
78854;SDS011;68206;59.956;30.234;2023-04-01T14:52:11;2.38;;;1.50;;
78854;SDS011;68206;59.956;30.234;2023-04-01T14:54:46;2.60;;;1.35;;
78854;SDS011;68206;59.956;30.234;2023-04-01T14:57:20;1.48;;;1.15;;
78854;SDS011;68206;59.956;30.234;2023-04-01T14:59:52;6.72;;;2.00;;
78854;SDS011;68206;59.956;30.234;2023-04-01T15:05:26;3.42;;;1.55;;
78854;SDS011;68206;59.956;30.234;2023-04-01T15:10:56;2.90;;;1.40;;
78854;SDS011;68206;59.956;30.234;2023-04-01T15:13:44;3.55;;;1.50;;
78854;SDS011;68206;59.956;30.234;2023-04-01T15:16:39;3.10;;;1.70;;
78854;SDS011;68206;59.956;30.234;2023-04-01T15:19:15;2.90;;;1.50;;
78854;SDS011;68206;59.956;30.234;2023-04-01T15:24:56;2.85;;;1.42;;
78854;SDS011;68206;59.956;30.234;2023-04-01T15:27:36;5.45;;;1.83;;
78854;SDS011;68206;59.956;30.234;2023-04-01T15:30:19;2.80;;;1.55;;
78854;SDS011;68206;59.956;30.234;2023-04-01T15:32:59;5.68;;;2.05;;
78854;SDS011;68206;59.956;30.234;2023-04-01T15:35:42;7.75;;;1.90;;
78854;SDS011;68206;59.956;30.234;2023-04-01T15:38:17;2.97;;;1.50;;
78854;SDS011;68206;59.956;30.234;2023-04-01T15:40:55;5.22;;;2.03;;
78854;SDS011;68206;59.956;30.234;2023-04-01T15:43:34;3.72;;;1.70;;
78854;SDS011;68206;59.956;30.234;2023-04-01T15:46:13;3.00;;;1.73;;
78854;SDS011;68206;59.956;30.234;2023-04-01T15:48:55;2.50;;;1.50;;
78854;SDS011;68206;59.956;30.234;2023-04-01T15:51:42;4.15;;;2.17;;
78854;SDS011;68206;59.956;30.234;2023-04-01T15:57:23;3.00;;;1.60;;
78854;SDS011;68206;59.956;30.234;2023-04-01T16:02:51;2.03;;;1.33;;
78854;SDS011;68206;59.956;30.234;2023-04-01T18:12:13;3.20;;;1.80;;
78854;SDS011;68206;59.956;30.234;2023-04-01T18:14:51;4.55;;;2.17;;
78854;SDS011;68206;59.956;30.234;2023-04-01T18:17:40;3.63;;;2.08;;
78854;SDS011;68206;59.956;30.234;2023-04-01T18:20:18;2.83;;;1.60;;
78854;SDS011;68206;59.956;30.234;2023-04-01T18:23:06;5.40;;;2.38;;
78854;SDS011;68206;59.956;30.234;2023-04-01T18:25:48;4.22;;;2.10;;
78854;SDS011;68206;59.956;30.234;2023-04-01T18:28:24;5.85;;;3.05;;
78854;SDS011;68206;59.956;30.234;2023-04-01T18:31:04;4.38;;;2.42;;
78854;SDS011;68206;59.956;30.234;2023-04-01T18:33:41;5.80;;;2.33;;
78854;SDS011;68206;59.956;30.234;2023-04-01T18:36:17;4.90;;;2.28;;
78854;SDS011;68206;59.956;30.234;2023-04-01T18:38:50;4.65;;;2.05;;
78854;SDS011;68206;59.956;30.234;2023-04-01T18:41:26;5.97;;;2.13;;
78854;SDS011;68206;59.956;30.234;2023-04-01T18:44:15;3.13;;;2.20;;
78854;SDS011;68206;59.956;30.234;2023-04-01T18:47:00;6.22;;;2.70;;
78854;SDS011;68206;59.956;30.234;2023-04-01T18:49:40;4.22;;;2.17;;
78854;SDS011;68206;59.956;30.234;2023-04-01T18:52:15;6.38;;;2.75;;
78854;SDS011;68206;59.956;30.234;2023-04-01T18:54:52;6.00;;;2.42;;
78854;SDS011;68206;59.956;30.234;2023-04-01T18:57:40;5.78;;;2.90;;
78854;SDS011;68206;59.956;30.234;2023-04-01T19:00:18;4.93;;;2.85;;
78854;SDS011;68206;59.956;30.234;2023-04-01T19:02:50;6.57;;;3.10;;
78854;SDS011;68206;59.956;30.234;2023-04-01T19:08:43;5.30;;;2.85;;
78854;SDS011;68206;59.956;30.234;2023-04-01T19:11:14;5.10;;;3.05;;
78854;SDS011;68206;59.956;30.234;2023-04-01T19:13:53;5.10;;;2.90;;
78854;SDS011;68206;59.956;30.234;2023-04-01T19:16:33;4.45;;;2.83;;
78854;SDS011;68206;59.956;30.234;2023-04-01T19:19:15;7.07;;;3.08;;
78854;SDS011;68206;59.956;30.234;2023-04-01T19:21:53;5.28;;;2.58;;
78854;SDS011;68206;59.956;30.234;2023-04-01T19:24:27;5.28;;;2.83;;
78854;SDS011;68206;59.956;30.234;2023-04-01T19:27:11;8.23;;;2.50;;
78854;SDS011;68206;59.956;30.234;2023-04-01T19:29:54;4.85;;;2.47;;
78854;SDS011;68206;59.956;30.234;2023-04-01T19:32:37;5.60;;;2.30;;
78854;SDS011;68206;59.956;30.234;2023-04-01T19:35:19;2.72;;;1.98;;
78854;SDS011;68206;59.956;30.234;2023-04-01T19:37:54;3.47;;;1.80;;
78854;SDS011;68206;59.956;30.234;2023-04-01T19:40:37;4.50;;;2.17;;
78854;SDS011;68206;59.956;30.234;2023-04-01T19:43:14;4.35;;;2.28;;
78854;SDS011;68206;59.956;30.234;2023-04-01T19:45:54;4.32;;;1.83;;
78854;SDS011;68206;59.956;30.234;2023-04-01T19:48:36;2.85;;;1.70;;
78854;SDS011;68206;59.956;30.234;2023-04-01T19:51:13;4.78;;;2.70;;
78854;SDS011;68206;59.956;30.234;2023-04-01T19:53:48;2.88;;;1.70;;
78854;SDS011;68206;59.956;30.234;2023-04-01T19:56:29;3.05;;;1.83;;
78854;SDS011;68206;59.956;30.234;2023-04-01T19:59:04;5.20;;;1.92;;
78854;SDS011;68206;59.956;30.234;2023-04-01T20:01:44;3.20;;;1.63;;
78854;SDS011;68206;59.956;30.234;2023-04-01T20:04:22;2.50;;;1.65;;
78854;SDS011;68206;59.956;30.234;2023-04-01T20:06:57;2.72;;;1.90;;
78854;SDS011;68206;59.956;30.234;2023-04-01T20:09:40;3.85;;;1.92;;
78854;SDS011;68206;59.956;30.234;2023-04-01T20:12:20;3.67;;;2.00;;
78854;SDS011;68206;59.956;30.234;2023-04-01T20:14:56;3.92;;;2.10;;
78854;SDS011;68206;59.956;30.234;2023-04-01T20:17:27;4.88;;;1.90;;
78854;SDS011;68206;59.956;30.234;2023-04-01T20:20:02;2.35;;;1.60;;